createdAt,value
2022-09-12T00:01:21.897Z,13.00
2022-09-12T00:03:55.258Z,13.01
2022-09-12T00:06:24.741Z,12.94
2022-09-12T00:08:53.983Z,13.12
2022-09-12T00:11:20.471Z,13.02
2022-09-12T00:13:47.468Z,12.87
2022-09-12T00:16:19.353Z,12.87
2022-09-12T00:18:46.867Z,12.71
2022-09-12T00:21:14.816Z,12.77
2022-09-12T00:23:41.278Z,12.76
2022-09-12T00:26:08.476Z,12.81
2022-09-12T00:28:38.003Z,12.83
2022-09-12T00:31:06.995Z,12.82
2022-09-12T00:33:34.229Z,12.87
2022-09-12T00:36:05.450Z,12.88
2022-09-12T00:38:32.037Z,12.73
2022-09-12T00:41:01.408Z,12.83
2022-09-12T00:43:30.976Z,12.81
2022-09-12T00:45:58.191Z,12.90
2022-09-12T00:48:39.010Z,12.77
2022-09-12T00:51:05.695Z,12.88
2022-09-12T00:53:32.185Z,12.98
2022-09-12T00:55:59.016Z,12.94
2022-09-12T00:58:29.031Z,12.86
2022-09-12T01:00:59.763Z,12.79
2022-09-12T01:03:26.867Z,12.73
2022-09-12T01:06:16.185Z,12.70
2022-09-12T01:08:44.108Z,12.65
2022-09-12T01:11:11.863Z,12.49
2022-09-12T01:13:38.837Z,12.29
2022-09-12T01:16:06.698Z,12.23
2022-09-12T01:18:36.219Z,12.27
2022-09-12T01:21:34.756Z,12.40
2022-09-12T01:24:39.785Z,12.38
2022-09-12T01:27:30.784Z,12.39
2022-09-12T01:30:24.949Z,12.37
2022-09-12T01:33:13.196Z,12.44
2022-09-12T01:35:48.331Z,12.39
2022-09-12T01:38:30.236Z,12.35
2022-09-12T01:41:07.941Z,12.34
2022-09-12T01:43:45.810Z,12.38
2022-09-12T01:46:21.786Z,12.27
2022-09-12T01:49:03.832Z,12.23
2022-09-12T01:51:40.132Z,12.21
2022-09-12T01:54:13.771Z,12.25
2022-09-12T01:56:41.625Z,12.04
2022-09-12T01:59:20.543Z,12.06
2022-09-12T02:01:55.832Z,12.07
2022-09-12T02:04:25.807Z,12.10
2022-09-12T02:07:03.127Z,12.21
2022-09-12T02:09:34.673Z,12.04
2022-09-12T02:12:01.951Z,12.00
2022-09-12T02:14:32.120Z,12.10
2022-09-12T02:17:29.106Z,12.03
2022-09-12T02:20:00.255Z,12.01
2022-09-12T02:22:27.837Z,12.03
2022-09-12T02:24:57.873Z,12.00
2022-09-12T02:27:34.095Z,12.08
2022-09-12T02:30:00.689Z,12.08
2022-09-12T02:32:32.551Z,12.11
2022-09-12T02:35:07.445Z,11.98
2022-09-12T02:37:51.653Z,11.82
2022-09-12T02:40:18.640Z,11.91
2022-09-12T02:42:45.417Z,11.76
2022-09-12T02:45:12.637Z,11.79
2022-09-12T02:47:44.303Z,11.87
2022-09-12T02:50:11.017Z,11.95
2022-09-12T02:52:37.530Z,11.83
2022-09-12T02:55:05.571Z,11.69
2022-09-12T02:57:32.169Z,11.76
2022-09-12T03:00:00.742Z,11.76
2022-09-12T03:02:53.496Z,11.73
2022-09-12T03:05:24.927Z,11.69
2022-09-12T03:08:10.138Z,11.80
2022-09-12T03:10:45.774Z,11.66
2022-09-12T03:13:24.923Z,11.69
2022-09-12T03:16:23.049Z,11.71
2022-09-12T03:18:52.019Z,11.72
2022-09-12T03:21:26.377Z,11.62
2022-09-12T03:24:20.941Z,11.61
2022-09-12T03:27:13.976Z,11.64
2022-09-12T03:29:42.267Z,11.59
2022-09-12T03:32:08.883Z,11.59
2022-09-12T03:34:35.433Z,11.50
2022-09-12T03:37:02.210Z,11.47
2022-09-12T03:39:28.785Z,11.48
2022-09-12T03:41:56.102Z,11.59
2022-09-12T03:44:23.756Z,11.51
2022-09-12T03:46:50.728Z,11.40
2022-09-12T03:49:17.661Z,11.29
2022-09-12T03:51:44.319Z,11.34
2022-09-12T03:54:10.901Z,11.29
2022-09-12T03:56:40.211Z,11.21
2022-09-12T03:59:06.866Z,11.24
2022-09-12T04:01:33.900Z,11.26
2022-09-12T04:04:00.478Z,11.27
2022-09-12T04:06:26.977Z,11.31
2022-09-12T04:08:54.539Z,11.33
2022-09-12T04:11:21.827Z,11.34
2022-09-12T04:13:49.074Z,11.40
2022-09-12T04:16:18.577Z,11.37
2022-09-12T04:18:45.737Z,11.43
2022-09-12T04:21:18.286Z,11.44
2022-09-12T04:23:45.019Z,11.25
2022-09-12T04:26:13.748Z,11.22
2022-09-12T04:28:41.243Z,11.16
2022-09-12T04:31:15.537Z,10.95
2022-09-12T04:33:45.628Z,11.02
2022-09-12T04:36:16.720Z,11.05
2022-09-12T04:38:45.123Z,11.07
2022-09-12T04:41:17.940Z,11.22
2022-09-12T04:43:46.542Z,11.13
2022-09-12T04:46:15.334Z,11.16
2022-09-12T04:48:42.736Z,11.18
2022-09-12T04:51:25.946Z,11.06
2022-09-12T04:53:54.036Z,11.03
2022-09-12T04:56:21.329Z,11.06
2022-09-12T04:58:49.666Z,10.90
2022-09-12T05:01:18.601Z,10.91
2022-09-12T05:03:49.457Z,10.99
2022-09-12T05:06:21.831Z,10.98
2022-09-12T05:08:48.427Z,11.03
2022-09-12T05:11:21.531Z,11.16
2022-09-12T05:13:51.064Z,11.10
2022-09-12T05:16:18.201Z,11.03
2022-09-12T05:18:47.002Z,11.05
2022-09-12T05:21:18.881Z,11.10
2022-09-12T05:23:45.632Z,10.92
2022-09-12T05:26:16.397Z,10.90
2022-09-12T05:28:43.640Z,10.98
2022-09-12T05:31:18.972Z,11.07
2022-09-12T05:33:47.234Z,11.12
2022-09-12T05:36:19.711Z,11.26
2022-09-12T05:38:46.971Z,11.22
2022-09-12T05:41:24.199Z,11.18
2022-09-12T05:43:56.339Z,11.22
2022-09-12T05:46:25.793Z,11.03
2022-09-12T05:48:58.508Z,11.09
2022-09-12T05:51:28.162Z,11.18
2022-09-12T05:53:59.879Z,11.29
2022-09-12T05:56:30.794Z,11.29
2022-09-12T05:59:12.294Z,11.28
2022-09-12T06:01:39.160Z,11.37
2022-09-12T06:04:06.718Z,11.36
2022-09-12T06:06:36.929Z,11.54
2022-09-12T06:09:04.787Z,11.59
2022-09-12T06:11:33.785Z,11.61
2022-09-12T06:14:01.123Z,11.62
2022-09-12T06:16:30.732Z,11.65
2022-09-12T06:18:59.793Z,11.84
2022-09-12T06:21:27.076Z,11.88
2022-09-12T06:24:00.157Z,12.09
2022-09-12T06:26:27.729Z,12.16
2022-09-12T06:28:55.575Z,12.46
2022-09-12T06:31:29.019Z,12.53
2022-09-12T06:33:57.323Z,12.71
2022-09-12T06:36:27.416Z,12.99
2022-09-12T06:39:00.870Z,13.31
2022-09-12T06:41:28.141Z,13.49
2022-09-12T06:43:55.200Z,13.49
2022-09-12T06:46:21.859Z,13.75
2022-09-12T06:48:48.806Z,13.47
2022-09-12T06:51:17.708Z,13.60
2022-09-12T06:53:45.313Z,13.75
2022-09-12T06:56:15.789Z,13.97
2022-09-12T06:58:43.182Z,14.27
2022-09-12T07:01:17.617Z,14.47
2022-09-12T07:03:51.655Z,14.85
2022-09-12T07:06:20.257Z,14.96
2022-09-12T07:08:47.842Z,15.18
2022-09-12T07:11:17.195Z,15.23
2022-09-12T07:13:50.554Z,15.33
2022-09-12T07:16:19.672Z,15.80
2022-09-12T07:18:56.179Z,15.76
2022-09-12T07:21:22.928Z,15.48
2022-09-12T07:23:49.820Z,15.83
2022-09-12T07:26:16.689Z,15.86
2022-09-12T07:28:43.909Z,15.92
2022-09-12T07:31:11.837Z,16.08
2022-09-12T07:33:38.875Z,16.42
2022-09-12T07:36:07.338Z,16.66
2022-09-12T07:38:33.833Z,16.66
2022-09-12T07:41:01.194Z,16.97
2022-09-12T07:43:27.817Z,17.04
2022-09-12T07:46:03.049Z,17.08
2022-09-12T07:48:29.694Z,17.38
2022-09-12T07:51:04.687Z,17.72
2022-09-12T07:53:34.061Z,17.48
2022-09-12T07:56:00.683Z,17.93
2022-09-12T07:58:27.442Z,17.82
2022-09-12T08:00:54.106Z,18.28
2022-09-12T08:03:20.755Z,18.43
2022-09-12T08:05:47.507Z,18.35
2022-09-12T08:08:14.132Z,18.43
2022-09-12T08:10:40.729Z,18.85
2022-09-12T08:13:11.223Z,18.69
2022-09-12T08:15:37.868Z,18.61
2022-09-12T08:18:04.619Z,18.83
2022-09-12T08:20:31.396Z,18.69
2022-09-12T08:22:59.527Z,18.98
2022-09-12T08:25:26.110Z,18.95
2022-09-12T08:27:52.643Z,19.27
2022-09-12T08:30:19.335Z,19.28
2022-09-12T08:32:45.923Z,19.47
2022-09-12T08:35:12.791Z,19.79
2022-09-12T08:37:39.448Z,19.75
2022-09-12T08:40:08.441Z,19.86
2022-09-12T08:43:10.416Z,20.15
2022-09-12T08:45:43.316Z,20.20
2022-09-12T08:48:16.981Z,20.18
2022-09-12T08:50:49.972Z,20.32
2022-09-12T08:53:21.853Z,20.44
2022-09-12T08:55:57.906Z,20.26
2022-09-12T08:58:25.927Z,20.44
2022-09-12T09:01:07.595Z,20.39
2022-09-12T09:04:02.225Z,20.40
2022-09-12T09:06:47.203Z,20.66
2022-09-12T09:09:51.595Z,20.43
2022-09-12T09:12:24.298Z,20.65
2022-09-12T09:15:15.388Z,20.55
2022-09-12T09:17:43.844Z,20.70
2022-09-12T09:20:31.615Z,20.92
2022-09-12T09:23:15.369Z,21.12
2022-09-12T09:26:05.581Z,21.40
2022-09-12T09:28:50.008Z,21.43
2022-09-12T09:31:18.988Z,21.64
2022-09-12T09:33:48.304Z,21.49
2022-09-12T09:36:44.116Z,21.34
2022-09-12T09:39:29.458Z,21.41
2022-09-12T09:42:20.361Z,21.52
2022-09-12T09:44:49.080Z,21.51
2022-09-12T09:47:17.016Z,21.83
2022-09-12T09:49:43.677Z,21.78
2022-09-12T09:52:12.938Z,22.09
2022-09-12T09:54:41.187Z,22.31
2022-09-12T09:57:37.294Z,22.13
2022-09-12T10:00:32.116Z,22.28
2022-09-12T10:03:14.326Z,22.38
2022-09-12T10:05:54.247Z,22.32
2022-09-12T10:08:31.326Z,21.80
2022-09-12T10:11:04.524Z,22.35
2022-09-12T10:13:36.162Z,22.61
2022-09-12T10:16:06.713Z,22.73
2022-09-12T10:18:35.781Z,22.75
2022-09-12T10:21:04.791Z,22.79
2022-09-12T10:23:41.107Z,22.54
2022-09-12T10:26:15.982Z,22.79
2022-09-12T10:28:47.149Z,22.61
2022-09-12T10:31:28.942Z,22.76
2022-09-12T10:34:00.131Z,22.93
2022-09-12T10:36:40.084Z,22.96
2022-09-12T10:39:17.747Z,23.16
2022-09-12T10:41:44.889Z,23.12
2022-09-12T10:44:32.761Z,23.23
2022-09-12T10:47:01.049Z,23.24
2022-09-12T10:49:31.891Z,23.38
2022-09-12T10:52:21.925Z,23.51
2022-09-12T10:54:48.535Z,23.45
2022-09-12T10:57:44.241Z,23.45
2022-09-12T11:00:17.570Z,23.54
2022-09-12T11:02:56.161Z,23.61
2022-09-12T11:05:32.131Z,23.79
2022-09-12T11:08:22.180Z,23.88
2022-09-12T11:11:02.872Z,23.73
2022-09-12T11:13:49.010Z,23.70
2022-09-12T11:16:22.939Z,23.83
2022-09-12T11:18:49.568Z,23.70
2022-09-12T11:21:39.466Z,23.76
2022-09-12T11:24:18.861Z,23.93
2022-09-12T11:26:54.478Z,24.05
2022-09-12T11:29:27.121Z,24.07
2022-09-12T11:32:29.117Z,24.26
2022-09-12T11:35:17.800Z,24.23
2022-09-12T11:38:21.986Z,24.28
2022-09-12T11:41:04.742Z,23.92
2022-09-12T11:43:41.844Z,24.18
2022-09-12T11:46:37.517Z,24.42
2022-09-12T11:49:13.445Z,24.42
2022-09-12T11:52:06.454Z,24.32
2022-09-12T11:54:40.681Z,24.39
2022-09-12T11:57:25.656Z,24.44
2022-09-12T11:59:57.184Z,24.61
2022-09-12T12:02:29.762Z,24.61
2022-09-12T12:05:29.961Z,24.54
2022-09-12T12:07:59.061Z,24.86
2022-09-12T12:10:44.294Z,24.77
2022-09-12T12:13:21.834Z,24.70
2022-09-12T12:15:51.359Z,24.91
2022-09-12T12:18:22.214Z,24.96
2022-09-12T12:20:54.392Z,24.68
2022-09-12T12:23:32.486Z,24.92
2022-09-12T12:26:03.616Z,25.13
2022-09-12T12:28:42.476Z,25.13
2022-09-12T12:31:10.533Z,25.32
2022-09-12T12:33:37.047Z,25.20
2022-09-12T12:36:07.403Z,25.18
2022-09-12T12:38:34.762Z,25.41
2022-09-12T12:41:36.518Z,25.22
2022-09-12T12:44:41.184Z,25.33
2022-09-12T12:47:22.155Z,25.33
2022-09-12T12:50:27.419Z,25.25
2022-09-12T12:52:58.407Z,25.15
2022-09-12T12:55:27.934Z,25.28
2022-09-12T12:57:56.415Z,25.43
2022-09-12T13:00:48.796Z,25.09
2022-09-12T13:03:28.016Z,25.34
2022-09-12T13:06:01.903Z,25.38
2022-09-12T13:08:31.761Z,25.59
2022-09-12T13:11:08.369Z,25.80
2022-09-12T13:13:50.796Z,25.54
2022-09-12T13:16:40.829Z,25.74
2022-09-12T13:19:18.372Z,25.60
2022-09-12T13:22:08.762Z,25.74
2022-09-12T13:24:44.681Z,25.48
2022-09-12T13:27:31.458Z,25.72
2022-09-12T13:30:15.231Z,25.48
2022-09-12T13:32:42.785Z,25.62
2022-09-12T13:35:16.595Z,25.50
2022-09-12T13:37:58.819Z,25.69
2022-09-12T13:40:33.753Z,26.20
2022-09-12T13:43:25.402Z,25.75
2022-09-12T13:45:52.773Z,26.16
2022-09-12T13:48:24.383Z,25.88
2022-09-12T13:50:58.780Z,25.97
2022-09-12T13:53:27.874Z,26.07
2022-09-12T13:56:01.379Z,26.25
2022-09-12T13:58:33.553Z,26.22
2022-09-12T14:01:12.862Z,25.97
2022-09-12T14:04:15.287Z,25.98
2022-09-12T14:06:46.560Z,26.11
2022-09-12T14:10:10.901Z,25.62
2022-09-12T14:12:40.165Z,25.66
2022-09-12T14:15:15.160Z,25.93
2022-09-12T14:17:52.552Z,25.99
2022-09-12T14:20:21.169Z,25.89
2022-09-12T14:22:57.144Z,25.94
2022-09-12T14:25:33.522Z,26.10
2022-09-12T14:28:06.312Z,26.16
2022-09-12T14:30:37.115Z,26.00
2022-09-12T14:33:10.019Z,25.91
2022-09-12T14:35:43.543Z,26.00
2022-09-12T14:38:22.380Z,26.17
2022-09-12T14:40:56.951Z,26.21
2022-09-12T14:43:34.802Z,26.32
2022-09-12T14:46:03.991Z,26.25
2022-09-12T14:48:34.430Z,26.10
2022-09-12T14:51:01.423Z,25.96
2022-09-12T14:53:30.980Z,25.95
2022-09-12T14:56:02.355Z,26.16
2022-09-12T14:58:29.069Z,26.29
2022-09-12T15:01:01.886Z,26.04
2022-09-12T15:03:29.851Z,25.98
2022-09-12T15:05:56.606Z,26.14
2022-09-12T15:08:23.245Z,26.04
2022-09-12T15:10:49.791Z,25.77
2022-09-12T15:13:25.737Z,25.87
2022-09-12T15:15:54.041Z,26.12
2022-09-12T15:18:22.076Z,26.22
2022-09-12T15:20:52.151Z,26.16
2022-09-12T15:23:22.888Z,26.20
2022-09-12T15:25:50.175Z,26.18
2022-09-12T15:28:21.798Z,26.17
2022-09-12T15:30:50.494Z,26.12
2022-09-12T15:33:22.894Z,26.14
2022-09-12T15:35:52.591Z,26.32
2022-09-12T15:38:26.148Z,26.47
2022-09-12T15:40:54.214Z,26.45
2022-09-12T15:43:22.115Z,26.21
2022-09-12T15:45:52.360Z,26.19
2022-09-12T15:48:20.587Z,25.91
2022-09-12T15:50:47.195Z,25.89
2022-09-12T15:53:16.132Z,25.86
2022-09-12T15:55:43.607Z,25.89
2022-09-12T15:58:10.690Z,25.67
2022-09-12T16:00:37.255Z,25.83
2022-09-12T16:03:04.045Z,25.73
2022-09-12T16:05:30.609Z,25.66
2022-09-12T16:07:58.786Z,25.57
2022-09-12T16:10:28.330Z,25.65
2022-09-12T16:12:54.880Z,25.48
2022-09-12T16:15:23.518Z,25.38
2022-09-12T16:17:50.578Z,25.42
2022-09-12T16:20:17.314Z,25.44
2022-09-12T16:22:43.811Z,25.35
2022-09-12T16:25:10.417Z,25.37
2022-09-12T16:27:37.459Z,25.30
2022-09-12T16:30:06.209Z,25.27
2022-09-12T16:32:33.069Z,25.17
2022-09-12T16:34:59.832Z,25.14
2022-09-12T16:37:26.334Z,24.90
2022-09-12T16:39:53.210Z,24.96
2022-09-12T16:42:21.288Z,24.92
2022-09-12T16:44:49.494Z,24.92
2022-09-12T16:47:16.401Z,24.84
2022-09-12T16:49:43.107Z,24.75
2022-09-12T16:52:10.293Z,24.71
2022-09-12T16:54:36.933Z,24.62
2022-09-12T16:57:05.250Z,24.57
2022-09-12T16:59:32.208Z,24.49
2022-09-12T17:02:04.453Z,24.40
2022-09-12T17:04:30.915Z,24.33
2022-09-12T17:06:59.423Z,24.35
2022-09-12T17:09:27.345Z,24.30
2022-09-12T17:11:53.998Z,24.24
2022-09-12T17:14:20.892Z,24.13
2022-09-12T17:16:51.708Z,24.12
2022-09-12T17:19:26.515Z,24.16
2022-09-12T17:21:53.231Z,24.17
2022-09-12T17:24:22.915Z,24.17
2022-09-12T17:26:50.391Z,24.09
2022-09-12T17:29:17.220Z,23.90
2022-09-12T17:31:44.505Z,23.79
2022-09-12T17:34:14.517Z,23.70
2022-09-12T17:36:44.272Z,23.60
2022-09-12T17:39:12.198Z,23.49
2022-09-12T17:41:39.303Z,23.26
2022-09-12T17:44:07.695Z,23.27
2022-09-12T17:46:36.718Z,23.10
2022-09-12T17:49:06.436Z,22.94
2022-09-12T17:51:33.472Z,22.80
2022-09-12T17:54:02.216Z,22.85
2022-09-12T17:56:30.739Z,22.64
2022-09-12T17:59:04.040Z,22.55
2022-09-12T18:01:49.873Z,22.49
2022-09-12T18:04:21.036Z,22.07
2022-09-12T18:06:50.434Z,21.60
2022-09-12T18:09:24.761Z,21.71
2022-09-12T18:11:51.861Z,21.81
2022-09-12T18:14:18.582Z,21.84
2022-09-12T18:16:46.016Z,21.78
2022-09-12T18:19:13.210Z,21.51
2022-09-12T18:21:39.908Z,21.45
2022-09-12T18:24:06.791Z,21.48
2022-09-12T18:26:33.846Z,21.37
2022-09-12T18:29:00.494Z,21.25
2022-09-12T18:31:29.984Z,21.20
2022-09-12T18:33:57.645Z,21.07
2022-09-12T18:36:24.456Z,20.77
2022-09-12T18:38:50.964Z,20.73
2022-09-12T18:41:21.818Z,20.64
2022-09-12T18:43:49.030Z,20.53
2022-09-12T18:46:18.440Z,20.63
2022-09-12T18:48:48.709Z,20.69
2022-09-12T18:51:16.336Z,20.59
2022-09-12T18:53:43.111Z,20.43
2022-09-12T18:56:14.103Z,20.10
2022-09-12T18:58:42.623Z,19.92
2022-09-12T19:01:16.456Z,19.95
2022-09-12T19:03:43.280Z,19.90
2022-09-12T19:06:13.711Z,19.90
2022-09-12T19:08:47.505Z,19.64
2022-09-12T19:11:14.120Z,19.82
2022-09-12T19:13:46.974Z,19.52
2022-09-12T19:16:22.028Z,19.33
2022-09-12T19:18:49.814Z,19.21
2022-09-12T19:21:22.633Z,19.25
2022-09-12T19:23:57.758Z,19.43
2022-09-12T19:26:24.617Z,19.46
2022-09-12T19:28:51.226Z,19.31
2022-09-12T19:31:21.936Z,19.10
2022-09-12T19:33:49.442Z,18.96
2022-09-12T19:36:41.276Z,18.95
2022-09-12T19:39:06.404Z,18.98
2022-09-12T19:41:33.493Z,18.97
2022-09-12T19:44:00.442Z,18.92
2022-09-12T19:46:27.931Z,18.82
2022-09-12T19:48:54.957Z,18.83
2022-09-12T19:51:25.258Z,18.72
2022-09-12T19:53:52.549Z,18.75
2022-09-12T19:56:22.310Z,18.79
2022-09-12T19:58:55.160Z,18.74
2022-09-12T20:01:29.843Z,18.56
2022-09-12T20:03:57.747Z,18.59
2022-09-12T20:06:24.800Z,18.80
2022-09-12T20:08:51.523Z,18.71
2022-09-12T20:11:20.798Z,18.71
2022-09-12T20:13:47.859Z,18.67
2022-09-12T20:16:21.367Z,18.56
2022-09-12T20:18:52.265Z,18.59
2022-09-12T20:21:20.336Z,18.65
2022-09-12T20:23:47.262Z,18.69
2022-09-12T20:26:14.080Z,18.69
2022-09-12T20:28:41.909Z,18.68
2022-09-12T20:31:15.095Z,18.54
2022-09-12T20:33:42.258Z,18.17
2022-09-12T20:36:14.750Z,18.14
2022-09-12T20:38:42.754Z,18.29
2022-09-12T20:41:10.844Z,18.35
2022-09-12T20:43:38.701Z,18.29
2022-09-12T20:46:17.512Z,18.20
2022-09-12T20:48:47.088Z,18.14
2022-09-12T20:51:14.439Z,17.99
2022-09-12T20:53:40.938Z,18.04
2022-09-12T20:56:07.672Z,17.84
2022-09-12T20:58:34.694Z,17.79
2022-09-12T21:01:07.815Z,17.48
2022-09-12T21:03:42.071Z,17.35
2022-09-12T21:06:09.642Z,17.57
2022-09-12T21:08:37.144Z,17.34
2022-09-12T21:11:04.611Z,17.45
2022-09-12T21:13:31.252Z,17.25
2022-09-12T21:16:24.371Z,17.33
2022-09-12T21:18:58.673Z,17.33
2022-09-12T21:21:26.186Z,17.30
2022-09-12T21:24:04.717Z,17.44
2022-09-12T21:26:31.466Z,17.29
2022-09-12T21:29:01.060Z,17.06
2022-09-12T21:31:29.610Z,17.12
2022-09-12T21:33:56.318Z,17.13
2022-09-12T21:36:25.456Z,17.10
2022-09-12T21:38:51.971Z,16.90
2022-09-12T21:41:18.615Z,16.72
2022-09-12T21:43:45.373Z,16.78
2022-09-12T21:46:13.519Z,16.76
2022-09-12T21:48:40.343Z,16.73
2022-09-12T21:51:07.052Z,16.88
2022-09-12T21:53:33.564Z,16.83
2022-09-12T21:56:08.108Z,16.99
2022-09-12T21:58:35.295Z,16.90
2022-09-12T22:01:02.083Z,17.05
2022-09-12T22:03:29.647Z,16.76
2022-09-12T22:06:01.585Z,16.71
2022-09-12T22:08:29.545Z,16.61
2022-09-12T22:11:02.044Z,16.51
2022-09-12T22:13:32.304Z,16.32
2022-09-12T22:16:03.432Z,16.18
2022-09-12T22:18:32.326Z,16.24
2022-09-12T22:21:03.868Z,16.34
2022-09-12T22:23:48.992Z,16.36
2022-09-12T22:26:16.008Z,16.16
2022-09-12T22:28:42.986Z,16.30
2022-09-12T22:31:13.122Z,16.41
2022-09-12T22:33:39.932Z,16.17
2022-09-12T22:36:07.165Z,16.26
2022-09-12T22:38:33.826Z,16.29
2022-09-12T22:41:06.023Z,15.93
2022-09-12T22:43:33.728Z,15.82
2022-09-12T22:46:00.383Z,15.78
2022-09-12T22:48:27.133Z,15.52
2022-09-12T22:50:53.853Z,15.78
2022-09-12T22:53:20.393Z,15.81
2022-09-12T22:55:47.502Z,15.83
2022-09-12T22:58:14.936Z,15.89
2022-09-12T23:00:48.158Z,15.77
2022-09-12T23:03:17.259Z,15.75
2022-09-12T23:05:44.920Z,15.80
2022-09-12T23:08:12.134Z,15.77
2022-09-12T23:10:41.803Z,15.69
2022-09-12T23:13:08.408Z,15.59
2022-09-12T23:15:34.907Z,15.40
2022-09-12T23:18:01.537Z,15.45
2022-09-12T23:20:28.502Z,15.43
2022-09-12T23:22:55.020Z,15.45
2022-09-12T23:25:26.310Z,15.40
2022-09-12T23:27:53.024Z,15.44
2022-09-12T23:30:21.354Z,15.52
2022-09-12T23:32:50.889Z,15.55
2022-09-12T23:35:20.692Z,15.41
2022-09-12T23:37:47.535Z,15.35
2022-09-12T23:40:14.363Z,15.29
2022-09-12T23:42:40.983Z,15.28
2022-09-12T23:45:08.142Z,15.17
2022-09-12T23:47:34.731Z,15.23
2022-09-12T23:50:01.256Z,15.22
2022-09-12T23:52:27.943Z,15.23
2022-09-12T23:54:54.545Z,15.21
2022-09-12T23:57:21.065Z,15.35
2022-09-12T23:59:47.639Z,15.37
